createdAt,value
2023-02-04T00:02:21.731Z,21.93
2023-02-04T00:07:23.118Z,21.85
2023-02-04T00:12:24.860Z,21.80
2023-02-04T00:17:26.293Z,21.84
2023-02-04T00:22:28.842Z,21.90
2023-02-04T00:27:30.234Z,21.88
2023-02-04T00:32:31.598Z,21.83
2023-02-04T00:37:32.974Z,21.79
2023-02-04T00:42:34.397Z,21.86
2023-02-04T00:47:35.907Z,21.90
2023-02-04T00:52:37.321Z,21.83
2023-02-04T00:57:38.936Z,21.78
2023-02-04T01:02:43.403Z,21.81
2023-02-04T01:07:44.899Z,21.86
2023-02-04T01:12:46.323Z,21.85
2023-02-04T01:17:47.886Z,21.79
2023-02-04T01:22:49.364Z,21.76
2023-02-04T01:27:50.744Z,21.81
2023-02-04T01:32:52.151Z,21.86
2023-02-04T01:37:53.937Z,21.85
2023-02-04T01:42:55.347Z,21.76
2023-02-04T01:47:56.733Z,21.80
2023-02-04T01:52:58.166Z,21.84
2023-02-04T01:57:59.711Z,21.84
2023-02-04T02:03:01.137Z,21.79
2023-02-04T02:08:02.613Z,21.75
2023-02-04T02:13:05.033Z,21.82
2023-02-04T02:18:06.592Z,21.84
2023-02-04T02:23:26.441Z,21.81
2023-02-04T02:28:27.871Z,21.77
2023-02-04T02:33:29.248Z,21.74
2023-02-04T02:38:30.646Z,21.82
2023-02-04T02:43:32.026Z,21.80
2023-02-04T02:48:33.423Z,21.78
2023-02-04T02:53:35.741Z,21.77
2023-02-04T02:58:37.192Z,21.81
2023-02-04T03:03:40.441Z,21.86
2023-02-04T03:08:41.819Z,21.81
2023-02-04T03:13:43.214Z,21.74
2023-02-04T03:18:44.615Z,21.78
2023-02-04T03:23:46.026Z,21.86
2023-02-04T03:28:47.455Z,21.82
2023-02-04T03:33:48.890Z,21.77
2023-02-04T03:38:52.099Z,21.76
2023-02-04T03:43:53.481Z,21.83
2023-02-04T03:48:54.878Z,21.88
2023-02-04T03:53:56.321Z,21.84
2023-02-04T03:58:57.719Z,21.71
2023-02-04T04:03:59.128Z,21.74
2023-02-04T04:09:00.513Z,21.82
2023-02-04T04:14:01.976Z,21.84
2023-02-04T04:19:03.399Z,21.78
2023-02-04T04:24:04.883Z,21.72
2023-02-04T04:29:06.279Z,21.76
2023-02-04T04:34:07.651Z,21.80
2023-02-04T04:39:09.157Z,21.80
2023-02-04T04:44:10.549Z,21.73
2023-02-04T04:49:11.942Z,21.74
2023-02-04T04:54:13.310Z,21.80
2023-02-04T04:59:14.690Z,21.85
2023-02-04T05:04:16.079Z,21.83
2023-02-04T05:09:17.507Z,21.76
2023-02-04T05:14:18.977Z,21.78
2023-02-04T05:19:20.447Z,21.82
2023-02-04T05:24:21.811Z,21.85
2023-02-04T05:29:23.258Z,21.79
2023-02-04T05:34:24.658Z,21.74
2023-02-04T05:39:26.031Z,21.81
2023-02-04T05:44:27.596Z,21.81
2023-02-04T05:49:29.031Z,21.77
2023-02-04T05:54:30.416Z,21.69
2023-02-04T05:59:31.792Z,21.77
2023-02-04T06:04:33.222Z,21.81
2023-02-04T06:09:34.606Z,21.81
2023-02-04T06:14:36.083Z,21.75
2023-02-04T06:19:37.515Z,21.73
2023-02-04T06:24:38.907Z,21.80
2023-02-04T06:29:40.300Z,21.84
2023-02-04T06:34:41.716Z,21.82
2023-02-04T06:39:43.266Z,21.75
2023-02-04T06:44:44.675Z,21.80
2023-02-04T06:49:46.060Z,21.86
2023-02-04T06:54:47.471Z,21.82
2023-02-04T06:59:48.873Z,21.78
2023-02-04T07:04:50.279Z,21.75
2023-02-04T07:09:51.657Z,21.81
2023-02-04T07:14:53.031Z,21.84
2023-02-04T07:19:54.475Z,21.84
2023-02-04T07:24:55.885Z,21.76
2023-02-04T07:29:57.268Z,21.80
2023-02-04T07:34:59.552Z,21.85
2023-02-04T07:40:01.298Z,21.84
2023-02-04T07:45:02.672Z,21.79
2023-02-04T07:50:04.444Z,21.78
2023-02-04T07:55:06.579Z,21.84
2023-02-04T08:00:09.375Z,21.86
2023-02-04T08:05:10.808Z,21.85
2023-02-04T08:10:12.272Z,21.79
2023-02-04T08:15:13.643Z,21.82
2023-02-04T08:20:15.061Z,21.87
2023-02-04T08:25:16.588Z,21.88
2023-02-04T08:30:18.108Z,21.84
2023-02-04T08:35:19.488Z,21.79
2023-02-04T08:40:20.884Z,21.86
2023-02-04T08:45:22.277Z,21.88
2023-02-04T08:50:23.713Z,21.85
2023-02-04T08:55:25.106Z,21.82
2023-02-04T09:00:26.604Z,21.84
2023-02-04T09:05:27.991Z,21.90
2023-02-04T09:10:29.713Z,21.87
2023-02-04T09:15:31.239Z,21.80
2023-02-04T09:20:33.068Z,21.85
2023-02-04T09:25:34.847Z,21.92
2023-02-04T09:30:36.280Z,21.94
2023-02-04T09:35:37.791Z,21.89
2023-02-04T09:40:44.160Z,21.85
2023-02-04T09:45:45.600Z,21.89
2023-02-04T09:50:47.016Z,21.96
2023-02-04T09:55:48.963Z,21.93
2023-02-04T10:00:58.308Z,21.87
2023-02-04T10:05:59.700Z,21.86
2023-02-04T10:11:01.214Z,21.93
2023-02-04T10:16:02.640Z,21.93
2023-02-04T10:21:17.608Z,21.87
2023-02-04T10:26:19.182Z,21.83
2023-02-04T10:31:29.680Z,21.91
2023-02-04T10:36:31.212Z,21.92
2023-02-04T10:41:34.224Z,21.92
2023-02-04T10:46:35.730Z,21.82
2023-02-04T10:51:37.108Z,21.87
2023-02-04T10:56:38.527Z,21.92
2023-02-04T11:01:39.944Z,21.93
2023-02-04T11:06:41.343Z,21.87
2023-02-04T11:11:49.482Z,21.83
2023-02-04T11:16:51.368Z,21.91
2023-02-04T11:21:52.795Z,21.92
2023-02-04T11:27:18.623Z,21.90
2023-02-04T11:32:33.006Z,21.84
2023-02-04T11:37:38.991Z,21.86
2023-02-04T11:42:43.451Z,21.92
2023-02-04T11:47:44.844Z,21.90
2023-02-04T11:52:46.236Z,21.86
2023-02-04T11:57:51.966Z,21.88
2023-02-04T12:03:01.268Z,21.90
2023-02-04T12:08:11.762Z,21.92
2023-02-04T12:13:17.260Z,21.86
2023-02-04T12:18:18.691Z,21.85
2023-02-04T12:23:20.242Z,21.91
2023-02-04T12:28:21.673Z,21.94
2023-02-04T12:33:23.067Z,21.91
2023-02-04T12:38:24.454Z,21.80
2023-02-04T12:43:28.336Z,21.84
2023-02-04T12:48:29.936Z,21.91
2023-02-04T12:53:31.351Z,21.88
2023-02-04T12:58:32.740Z,21.84
2023-02-04T13:03:34.140Z,21.80
2023-02-04T13:08:35.574Z,21.89
2023-02-04T13:13:36.952Z,21.92
2023-02-04T13:18:39.137Z,21.84
2023-02-04T13:23:40.570Z,21.81
2023-02-04T13:28:41.955Z,21.87
2023-02-04T13:33:43.348Z,21.91
2023-02-04T13:38:44.770Z,21.87
2023-02-04T13:43:46.146Z,21.80
2023-02-04T13:48:47.602Z,21.82
2023-02-04T13:53:48.983Z,21.87
2023-02-04T13:58:50.411Z,21.90
2023-02-04T14:03:51.801Z,21.87
2023-02-04T14:08:53.182Z,21.80
2023-02-04T14:13:55.592Z,21.86
2023-02-04T14:18:56.995Z,21.90
2023-02-04T14:23:58.436Z,21.88
2023-02-04T14:28:59.811Z,21.84
2023-02-04T14:34:01.187Z,21.83
2023-02-04T14:39:02.585Z,21.87
2023-02-04T14:44:04.071Z,21.89
2023-02-04T14:49:05.461Z,21.84
2023-02-04T14:54:06.851Z,21.79
2023-02-04T14:59:08.244Z,21.86
2023-02-04T15:04:11.936Z,21.89
2023-02-04T15:09:13.463Z,21.84
2023-02-04T15:14:14.833Z,21.79
2023-02-04T15:19:16.727Z,21.78
2023-02-04T15:24:18.218Z,21.85
2023-02-04T15:29:19.595Z,21.84
2023-02-04T15:34:20.978Z,21.85
2023-02-04T15:39:22.362Z,21.77
2023-02-04T15:44:24.164Z,21.84
2023-02-04T15:49:25.584Z,21.86
2023-02-04T15:54:26.983Z,21.83
2023-02-04T15:59:28.446Z,21.77
2023-02-04T16:04:29.826Z,21.78
2023-02-04T16:09:31.230Z,21.84
2023-02-04T16:14:32.658Z,21.84
2023-02-04T16:19:34.116Z,21.83
2023-02-04T16:24:35.582Z,21.75
2023-02-04T16:29:36.966Z,21.80
2023-02-04T16:34:38.364Z,21.84
2023-02-04T16:39:39.898Z,21.79
2023-02-04T16:44:41.266Z,21.76
2023-02-04T16:49:44.710Z,21.75
2023-02-04T16:54:46.170Z,21.84
2023-02-04T16:59:47.562Z,21.80
2023-02-04T17:04:48.969Z,21.72
2023-02-04T17:09:50.338Z,21.75
2023-02-04T17:14:51.720Z,21.82
2023-02-04T17:19:53.163Z,21.83
2023-02-04T17:24:54.576Z,21.79
2023-02-04T17:29:55.972Z,21.74
2023-02-04T17:34:58.673Z,21.78
2023-02-04T17:40:00.162Z,21.80
2023-02-04T17:45:01.645Z,21.82
2023-02-04T17:50:05.473Z,21.71
2023-02-04T17:55:15.753Z,21.73
2023-02-04T18:00:18.635Z,21.79
2023-02-04T18:05:21.973Z,21.83
2023-02-04T18:10:31.679Z,21.77
2023-02-04T18:15:33.379Z,21.71
2023-02-04T18:20:35.176Z,21.76
2023-02-04T18:25:36.612Z,21.80
2023-02-04T18:30:38.922Z,21.79
2023-02-04T18:35:47.957Z,21.74
2023-02-04T18:40:50.453Z,21.77
2023-02-04T18:45:51.909Z,21.81
2023-02-04T18:50:56.668Z,21.80
2023-02-04T18:55:58.855Z,21.74
2023-02-04T19:01:12.737Z,21.77
2023-02-04T19:06:37.427Z,21.81
2023-02-04T19:11:42.414Z,21.80
2023-02-04T19:16:43.909Z,21.75
2023-02-04T19:21:45.329Z,21.69
2023-02-04T19:26:52.659Z,21.77
2023-02-04T19:31:54.642Z,21.79
2023-02-04T19:36:56.074Z,21.77
2023-02-04T19:41:58.018Z,21.74
2023-02-04T19:47:19.080Z,21.78
2023-02-04T19:52:34.744Z,21.81
2023-02-04T19:57:36.828Z,21.75
2023-02-04T20:02:38.645Z,21.73
2023-02-04T20:07:40.033Z,21.74
2023-02-04T20:12:41.411Z,21.81
2023-02-04T20:17:49.153Z,21.80
2023-02-04T20:22:52.515Z,21.75
2023-02-04T20:27:56.979Z,21.71
2023-02-04T20:33:05.436Z,21.77
2023-02-04T20:38:16.043Z,21.80
2023-02-04T20:43:20.961Z,21.76
2023-02-04T20:48:28.442Z,21.74
2023-02-04T20:53:39.615Z,21.74
2023-02-04T20:58:44.283Z,21.84
2023-02-04T21:03:45.789Z,21.79
2023-02-04T21:08:47.464Z,21.73
2023-02-04T21:13:49.639Z,21.72
2023-02-04T21:18:51.066Z,21.77
2023-02-04T21:23:52.481Z,21.80
2023-02-04T21:28:54.072Z,21.72
2023-02-04T21:33:56.851Z,21.70
2023-02-04T21:38:58.371Z,21.76
2023-02-04T21:44:00.074Z,21.78
2023-02-04T21:49:01.661Z,21.74
2023-02-04T21:54:05.076Z,21.71
2023-02-04T21:59:06.452Z,21.76
2023-02-04T22:04:07.835Z,21.78
2023-02-04T22:09:09.206Z,21.74
2023-02-04T22:14:10.586Z,21.71
2023-02-04T22:19:11.980Z,21.74
2023-02-04T22:24:13.352Z,21.77
2023-02-04T22:29:16.292Z,21.78
2023-02-04T22:34:17.716Z,21.75
2023-02-04T22:39:19.113Z,21.72
2023-02-04T22:44:20.578Z,21.77
2023-02-04T22:49:21.988Z,21.78
2023-02-04T22:54:23.378Z,21.75
2023-02-04T22:59:24.799Z,21.70
2023-02-04T23:04:26.168Z,21.78
2023-02-04T23:09:28.175Z,21.79
2023-02-04T23:14:29.559Z,21.77
2023-02-04T23:19:30.946Z,21.69
2023-02-04T23:24:32.376Z,21.71
2023-02-04T23:29:35.262Z,21.79
2023-02-04T23:34:36.881Z,21.78
2023-02-04T23:39:38.288Z,21.73
2023-02-04T23:44:39.827Z,21.76
2023-02-04T23:49:41.255Z,21.77
2023-02-04T23:54:42.683Z,21.76
2023-02-04T23:59:44.056Z,21.71
